Startpagina
METAR-TAF:

METAR-TAF

Vliegvelden :

Aeropuerto de Gran Canaria

Gran Canaria, Spanje

breedte: 27-56N, lengte: 015-23W, hoogte: 23 m

Actueel weer

Dit bericht is 19 minuten geleden gemaakt, om 19:30 UTC
Wind 14 kt uit het noordnoordoosten
Temperatuur 22°C
Vochtigheid 69%
Druk 1016 hPa
Zicht 10 km of meer
Weinig wolken op 3000 ft

METAR: GCLP 231930Z 03014KT 9999 FEW030 22/16 Q1016 NOSIG

Tijdstip: 20:49 (19:49 UTC)

Verwachting

Dit bericht is 5 uur en het 49 minuten geleden gemaakt, om 14:00 UTC
Verwachting geldig van 23 om 15 UTC tot 24 om 15 UTC
Wind 22 kt uit het noordnoordoosten
Zicht 10 km of meer
Weinig wolken op 2500 ft
Kans 30% :
Tijdelijke
van 23 om 15 UTC tot 23 om 18 UTC
Wind 18 kt uit het noorden met uitschieters tot 28 kt
Kans 30% :
Tijdelijke
van 23 om 19 UTC tot 23 om 22 UTC
Wind 5 kt uit het zuiden

TAF: GCLP 231400Z 2315/2415 03022KT 9999 FEW025 TX26/2414Z TN19/2405Z PROB30 TEMPO 2315/2318 36018G28KT PROB30 TEMPO 2319/2322 19005KT

Waarnemingen en weersverwachtingen van meer dan 4000 vliegvelden (METAR en TAF).

De beschikbare stations zijn de gele en rode punten op de kaart.

Ga met uw muis naar het station om de naam te zien.

Klik dan om waarnemingen en weersverwachtingen te zien.

kaart wijzigen: klik op de groene knoppen met een zwart kruis om in te zoomen, op de groene knop met een streepje om uit te zoomen of op de groene pijlen voor aangrenzende kaarten.


METAR-TAF: